North Eaton, Ohio
Current Conditions -  °F | °C
As of 1:53 PM on Friday 31 Oct 2014 (Local Time) from KLPR Reporting Station
Light Rain Light Rain  
Wind Chill: 42°   Ceiling: 3800
Heat Index: 46°   Visibility: 9mi
Dew Point: 38°   Wind: 8mph
Humidity: 73%   Direction: 260°W
Pressure: 29.87"   Gusts: NA
Location:  41.2641°N, 82.0411°W
Report Text: KLPR 311753Z AUTO 26007KT 9SM -RA FEW030 OVC038 08/03 A2987 RMK AO2 RAB1655 SLP118 P0000 60000 T00780033 10083 20056 58013 TSNO
Loading
Personal Weather Stations






























Interactive Weather Map
Tropical Storm Tracking
New forecast layout! Learn more

10-Day Weather Forecast

Advertisements
Track Severe Weather on mobile